createdAt,value
2023-01-30T00:01:46.409Z,51.78
2023-01-30T00:04:17.140Z,52.01
2023-01-30T00:06:45.188Z,52.10
2023-01-30T00:09:14.700Z,52.02
2023-01-30T00:11:43.696Z,52.21
2023-01-30T00:14:11.371Z,52.29
2023-01-30T00:16:39.096Z,52.34
2023-01-30T00:19:06.895Z,52.44
2023-01-30T00:21:34.571Z,52.57
2023-01-30T00:24:02.226Z,52.58
2023-01-30T00:26:29.986Z,52.95
2023-01-30T00:28:59.043Z,52.88
2023-01-30T00:31:26.788Z,52.99
2023-01-30T00:33:54.408Z,52.88
2023-01-30T00:36:22.389Z,52.96
2023-01-30T00:38:50.019Z,52.93
2023-01-30T00:41:18.883Z,53.17
2023-01-30T00:44:04.268Z,53.29
2023-01-30T00:46:52.518Z,53.31
2023-01-30T00:49:20.597Z,53.11
2023-01-30T00:51:48.617Z,53.66
2023-01-30T00:54:16.234Z,53.42
2023-01-30T00:56:43.871Z,53.58
2023-01-30T00:59:11.579Z,53.66
2023-01-30T01:01:40.731Z,53.66
2023-01-30T01:04:10.435Z,53.46
2023-01-30T01:06:38.136Z,53.75
2023-01-30T01:09:06.758Z,53.85
2023-01-30T01:11:34.563Z,53.76
2023-01-30T01:14:03.705Z,53.76
2023-01-30T01:16:32.798Z,53.65
2023-01-30T01:19:01.969Z,53.92
2023-01-30T01:21:29.615Z,53.99
2023-01-30T01:23:59.255Z,54.17
2023-01-30T01:26:27.662Z,53.75
2023-01-30T01:28:56.299Z,53.97
2023-01-30T01:31:25.630Z,54.38
2023-01-30T01:33:53.456Z,54.22
2023-01-30T01:36:52.249Z,54.24
2023-01-30T01:39:10.669Z,54.30
2023-01-30T01:41:37.471Z,54.25
2023-01-30T01:44:07.600Z,54.09
2023-01-30T01:46:38.681Z,54.17
2023-01-30T01:49:13.884Z,54.30
2023-01-30T01:51:50.878Z,54.44
2023-01-30T01:54:22.489Z,54.43
2023-01-30T01:56:51.315Z,54.56
2023-01-30T01:59:24.759Z,54.52
2023-01-30T02:01:57.495Z,54.61
2023-01-30T02:04:41.286Z,54.76
2023-01-30T02:07:10.700Z,54.72
2023-01-30T02:09:38.947Z,54.79
2023-01-30T02:12:07.189Z,54.73
2023-01-30T02:14:36.399Z,54.76
2023-01-30T02:17:04.188Z,54.77
2023-01-30T02:19:51.361Z,54.62
2023-01-30T02:22:40.308Z,54.71
2023-01-30T02:25:37.953Z,54.95
2023-01-30T02:28:24.519Z,54.92
2023-01-30T02:31:12.966Z,54.83
2023-01-30T02:33:46.796Z,54.94
2023-01-30T02:36:22.215Z,54.82
2023-01-30T02:38:59.994Z,54.93
2023-01-30T02:41:37.338Z,54.71
2023-01-30T02:44:07.088Z,54.99
2023-01-30T02:46:47.562Z,55.06
2023-01-30T02:49:21.891Z,55.11
2023-01-30T02:51:51.854Z,54.87
2023-01-30T02:54:19.489Z,55.05
2023-01-30T02:56:49.963Z,55.07
2023-01-30T02:59:22.827Z,55.12
2023-01-30T03:02:22.193Z,55.13
2023-01-30T03:05:03.344Z,55.33
2023-01-30T03:07:41.257Z,55.24
2023-01-30T03:10:16.553Z,55.13
2023-01-30T03:12:51.282Z,55.40
2023-01-30T03:15:26.811Z,55.54
2023-01-30T03:17:56.041Z,55.39
2023-01-30T03:20:23.803Z,55.43
2023-01-30T03:22:51.433Z,55.51
2023-01-30T03:25:21.850Z,55.49
2023-01-30T03:27:52.015Z,55.40
2023-01-30T03:30:20.220Z,55.47
2023-01-30T03:32:47.843Z,55.58
2023-01-30T03:35:18.005Z,55.38
2023-01-30T03:37:46.085Z,55.60
2023-01-30T03:40:16.039Z,55.40
2023-01-30T03:42:44.000Z,55.60
2023-01-30T03:45:12.699Z,55.75
2023-01-30T03:47:40.318Z,55.85
2023-01-30T03:50:08.560Z,55.30
2023-01-30T03:52:38.034Z,55.56
2023-01-30T03:55:06.178Z,55.58
2023-01-30T03:57:33.800Z,55.66
2023-01-30T04:00:01.458Z,55.63
2023-01-30T04:02:29.175Z,55.71
2023-01-30T04:04:56.871Z,55.78
2023-01-30T04:07:24.623Z,55.64
2023-01-30T04:09:53.942Z,55.61
2023-01-30T04:12:21.624Z,55.69
2023-01-30T04:14:49.405Z,55.97
2023-01-30T04:17:17.018Z,55.93
2023-01-30T04:19:44.885Z,55.60
2023-01-30T04:22:12.533Z,55.80
2023-01-30T04:24:40.181Z,56.01
2023-01-30T04:27:09.634Z,55.90
2023-01-30T04:29:37.324Z,55.89
2023-01-30T04:32:05.425Z,56.10
2023-01-30T04:34:33.073Z,55.81
2023-01-30T04:37:00.726Z,55.88
2023-01-30T04:39:28.366Z,55.95
2023-01-30T04:41:56.013Z,55.70
2023-01-30T04:44:24.967Z,55.89
2023-01-30T04:46:52.720Z,56.15
2023-01-30T04:49:20.392Z,56.06
2023-01-30T04:51:48.084Z,55.75
2023-01-30T04:54:15.729Z,55.88
2023-01-30T04:56:44.523Z,55.94
2023-01-30T04:59:12.384Z,56.26
2023-01-30T05:01:41.631Z,56.29
2023-01-30T05:04:09.968Z,56.10
2023-01-30T05:06:38.276Z,56.14
2023-01-30T05:09:06.295Z,56.13
2023-01-30T05:11:34.420Z,56.07
2023-01-30T05:14:02.223Z,56.11
2023-01-30T05:16:30.393Z,55.84
2023-01-30T05:18:59.794Z,55.80
2023-01-30T05:21:28.856Z,56.04
2023-01-30T05:23:57.471Z,56.07
2023-01-30T05:26:25.653Z,56.06
2023-01-30T05:28:54.073Z,56.12
2023-01-30T05:31:22.201Z,55.88
2023-01-30T05:33:52.314Z,56.11
2023-01-30T05:36:22.930Z,55.79
2023-01-30T05:38:50.648Z,56.22
2023-01-30T05:41:18.920Z,56.20
2023-01-30T05:43:50.561Z,55.94
2023-01-30T05:46:18.464Z,55.98
2023-01-30T05:48:46.175Z,55.88
2023-01-30T05:51:18.660Z,56.38
2023-01-30T05:53:48.411Z,56.20
2023-01-30T05:56:16.617Z,55.94
2023-01-30T05:58:44.346Z,55.99
2023-01-30T06:01:13.971Z,55.89
2023-01-30T06:03:41.757Z,56.18
2023-01-30T06:06:11.175Z,56.40
2023-01-30T06:08:38.802Z,56.13
2023-01-30T06:11:10.139Z,56.22
2023-01-30T06:13:38.612Z,56.16
2023-01-30T06:16:07.111Z,56.42
2023-01-30T06:18:34.981Z,56.41
2023-01-30T06:21:02.979Z,56.34
2023-01-30T06:23:30.667Z,56.57
2023-01-30T06:25:58.767Z,56.32
2023-01-30T06:28:28.068Z,56.45
2023-01-30T06:30:56.123Z,56.39
2023-01-30T06:33:23.817Z,56.47
2023-01-30T06:35:52.922Z,56.10
2023-01-30T06:38:21.177Z,56.30
2023-01-30T06:40:51.011Z,56.15
2023-01-30T06:43:19.311Z,56.51
2023-01-30T06:45:48.534Z,56.56
2023-01-30T06:48:16.283Z,56.42
2023-01-30T06:50:43.955Z,56.44
2023-01-30T06:53:12.018Z,56.13
2023-01-30T06:55:39.702Z,56.32
2023-01-30T06:58:08.485Z,56.40
2023-01-30T07:00:37.122Z,56.28
2023-01-30T07:03:06.422Z,56.30
2023-01-30T07:05:34.036Z,56.45
2023-01-30T07:08:01.641Z,56.57
2023-01-30T07:10:32.003Z,56.49
2023-01-30T07:12:59.964Z,56.53
2023-01-30T07:15:27.852Z,56.42
2023-01-30T07:17:55.509Z,56.48
2023-01-30T07:20:24.606Z,56.49
2023-01-30T07:22:52.604Z,56.56
2023-01-30T07:25:20.856Z,56.41
2023-01-30T07:27:52.556Z,56.66
2023-01-30T07:30:20.921Z,56.42
2023-01-30T07:32:51.133Z,56.78
2023-01-30T07:35:19.305Z,56.62
2023-01-30T07:37:49.242Z,56.91
2023-01-30T07:40:17.604Z,56.78
2023-01-30T07:42:45.737Z,56.50
2023-01-30T07:45:13.447Z,56.44
2023-01-30T07:47:41.045Z,56.59
2023-01-30T07:50:09.731Z,56.65
2023-01-30T07:52:37.382Z,56.79
2023-01-30T07:55:07.339Z,56.95
2023-01-30T07:57:35.001Z,56.80
2023-01-30T08:00:02.943Z,56.78
2023-01-30T08:02:30.546Z,56.67
2023-01-30T08:04:58.214Z,56.73
2023-01-30T08:07:25.901Z,56.64
2023-01-30T08:09:53.532Z,56.85
2023-01-30T08:12:22.590Z,56.58
2023-01-30T08:14:50.372Z,56.67
2023-01-30T08:17:18.010Z,56.52
2023-01-30T08:19:45.639Z,56.91
2023-01-30T08:22:13.608Z,56.80
2023-01-30T08:24:41.244Z,56.78
2023-01-30T08:27:09.205Z,56.84
2023-01-30T08:29:38.203Z,56.78
2023-01-30T08:32:06.334Z,56.53
2023-01-30T08:34:34.375Z,56.78
2023-01-30T08:37:01.984Z,56.82
2023-01-30T08:39:29.639Z,56.64
2023-01-30T08:41:57.412Z,56.71
2023-01-30T08:44:25.039Z,57.03
2023-01-30T08:46:54.006Z,56.86
2023-01-30T08:49:21.661Z,56.78
2023-01-30T08:51:49.290Z,56.98
2023-01-30T08:54:16.962Z,56.94
2023-01-30T08:56:44.628Z,56.78
2023-01-30T08:59:12.264Z,56.88
2023-01-30T09:01:39.974Z,57.08
2023-01-30T09:04:09.015Z,56.88
2023-01-30T09:06:36.757Z,56.82
2023-01-30T09:09:05.037Z,57.11
2023-01-30T09:11:32.724Z,56.96
2023-01-30T09:14:00.336Z,56.97
2023-01-30T09:16:28.057Z,56.89
2023-01-30T09:18:55.767Z,56.88
2023-01-30T09:21:25.202Z,56.93
2023-01-30T09:23:52.823Z,57.11
2023-01-30T09:26:20.509Z,56.92
2023-01-30T09:28:48.160Z,56.71
2023-01-30T09:31:15.906Z,57.17
2023-01-30T09:33:44.056Z,56.84
2023-01-30T09:36:11.661Z,57.05
2023-01-30T09:38:40.661Z,56.64
2023-01-30T09:41:42.662Z,56.92
2023-01-30T09:44:41.703Z,56.60
2023-01-30T09:47:13.215Z,57.00
2023-01-30T09:49:53.364Z,56.80
2023-01-30T09:52:31.895Z,56.86
2023-01-30T09:55:04.316Z,56.82
2023-01-30T09:57:31.971Z,56.80
2023-01-30T10:00:05.413Z,56.96
2023-01-30T10:02:42.339Z,57.05
2023-01-30T10:05:10.396Z,57.03
2023-01-30T10:07:52.209Z,57.05
2023-01-30T10:10:41.713Z,56.79
2023-01-30T10:13:24.704Z,56.70
2023-01-30T10:15:56.073Z,56.84
2023-01-30T10:18:37.948Z,57.06
2023-01-30T10:21:16.905Z,56.87
2023-01-30T10:24:02.900Z,57.13
2023-01-30T10:26:32.300Z,56.73
2023-01-30T10:29:07.617Z,57.22
2023-01-30T10:31:41.369Z,57.04
2023-01-30T10:34:15.673Z,57.00
2023-01-30T10:36:50.566Z,56.96
2023-01-30T10:39:32.486Z,57.00
2023-01-30T10:42:10.948Z,57.08
2023-01-30T10:44:40.961Z,57.10
2023-01-30T10:47:38.047Z,57.34
2023-01-30T10:50:18.018Z,57.08
2023-01-30T10:52:54.517Z,57.05
2023-01-30T10:55:37.126Z,57.12
2023-01-30T10:58:16.095Z,57.09
2023-01-30T11:00:48.812Z,57.15
2023-01-30T11:03:27.510Z,57.15
2023-01-30T11:06:01.019Z,57.21
2023-01-30T11:08:31.587Z,57.44
2023-01-30T11:10:59.720Z,57.03
2023-01-30T11:13:31.687Z,57.10
2023-01-30T11:16:01.615Z,57.23
2023-01-30T11:21:27.024Z,57.10
2023-01-30T11:24:06.851Z,57.12
2023-01-30T11:26:46.658Z,57.15
2023-01-30T11:29:28.889Z,57.15
2023-01-30T11:31:57.857Z,56.94
2023-01-30T11:34:26.004Z,57.10
2023-01-30T11:36:53.908Z,57.33
2023-01-30T11:39:24.706Z,57.15
2023-01-30T11:42:01.928Z,56.93
2023-01-30T11:44:33.253Z,57.13
2023-01-30T11:47:02.573Z,57.10
2023-01-30T11:49:48.155Z,57.17
2023-01-30T11:52:27.575Z,57.16
2023-01-30T11:55:01.036Z,56.98
2023-01-30T11:57:28.848Z,57.21
2023-01-30T12:00:00.118Z,57.39
2023-01-30T12:02:32.663Z,57.20
2023-01-30T12:05:02.489Z,57.34
2023-01-30T12:07:32.725Z,57.24
2023-01-30T12:10:01.027Z,57.02
2023-01-30T12:12:32.202Z,57.30
2023-01-30T12:15:11.716Z,57.28
2023-01-30T12:17:48.128Z,57.09
2023-01-30T12:20:22.077Z,57.34
2023-01-30T12:23:03.677Z,57.29
2023-01-30T12:25:39.624Z,57.06
2023-01-30T12:28:15.472Z,56.97
2023-01-30T12:30:51.591Z,57.14
2023-01-30T12:33:19.678Z,57.44
2023-01-30T12:36:06.424Z,57.23
2023-01-30T12:38:51.437Z,57.18
2023-01-30T12:41:34.768Z,57.54
2023-01-30T12:44:18.003Z,57.21
2023-01-30T12:47:01.019Z,57.12
2023-01-30T12:49:57.154Z,57.15
2023-01-30T12:52:43.292Z,57.35
2023-01-30T12:55:22.331Z,57.26
2023-01-30T12:58:00.301Z,57.30
2023-01-30T13:00:43.448Z,57.26
2023-01-30T13:03:24.712Z,56.93
2023-01-30T13:05:57.967Z,56.72
2023-01-30T13:08:55.498Z,57.39
2023-01-30T13:11:37.079Z,57.57
2023-01-30T13:14:13.472Z,57.32
2023-01-30T13:17:01.542Z,57.07
2023-01-30T13:19:41.846Z,57.45
2023-01-30T13:22:17.443Z,57.37
2023-01-30T13:24:55.363Z,57.46
2023-01-30T13:27:24.444Z,57.44
2023-01-30T13:29:53.758Z,57.32
2023-01-30T13:32:34.176Z,57.38
2023-01-30T13:35:07.535Z,57.52
2023-01-30T13:37:36.055Z,57.45
2023-01-30T13:40:14.360Z,57.30
2023-01-30T13:42:46.471Z,57.76
2023-01-30T13:45:17.951Z,57.44
2023-01-30T13:47:53.640Z,57.53
2023-01-30T13:50:37.464Z,57.60
2023-01-30T13:53:12.138Z,57.49
2023-01-30T13:55:48.489Z,57.64
2023-01-30T13:58:35.704Z,57.55
2023-01-30T14:01:03.764Z,57.50
2023-01-30T14:03:32.901Z,57.61
2023-01-30T14:06:04.974Z,57.61
2023-01-30T14:08:39.498Z,57.65
2023-01-30T14:11:29.071Z,57.44
2023-01-30T14:14:01.598Z,57.75
2023-01-30T14:16:42.066Z,57.54
2023-01-30T14:19:31.795Z,57.38
2023-01-30T14:22:02.915Z,57.54
2023-01-30T14:24:31.633Z,57.65
2023-01-30T14:27:25.395Z,57.55
2023-01-30T14:29:57.298Z,57.86
2023-01-30T14:33:00.921Z,57.40
2023-01-30T14:35:29.439Z,57.80
2023-01-30T14:38:12.772Z,57.65
2023-01-30T14:40:42.617Z,57.32
2023-01-30T14:43:36.802Z,57.63
2023-01-30T14:46:08.555Z,57.58
2023-01-30T14:48:44.524Z,57.62
2023-01-30T14:51:23.542Z,57.85
2023-01-30T14:54:01.568Z,57.65
2023-01-30T14:56:52.022Z,57.54
2023-01-30T14:59:24.984Z,57.55
2023-01-30T15:01:58.573Z,57.68
2023-01-30T15:04:29.974Z,57.34
2023-01-30T15:07:00.016Z,57.61
2023-01-30T15:09:31.345Z,57.65
2023-01-30T15:12:23.307Z,57.74
2023-01-30T15:15:03.845Z,57.63
2023-01-30T15:17:41.115Z,57.65
2023-01-30T15:20:27.459Z,57.46
2023-01-30T15:23:14.432Z,57.85
2023-01-30T15:26:01.314Z,57.64
2023-01-30T15:28:39.619Z,57.54
2023-01-30T15:31:19.613Z,57.67
2023-01-30T15:33:48.710Z,57.88
2023-01-30T15:36:28.054Z,57.54
2023-01-30T15:39:03.834Z,57.68
2023-01-30T15:41:39.877Z,58.11
2023-01-30T15:44:48.526Z,57.73
2023-01-30T15:47:30.045Z,57.73
2023-01-30T15:50:00.905Z,57.85
2023-01-30T15:52:38.165Z,57.55
2023-01-30T15:55:07.779Z,57.80
2023-01-30T15:57:39.600Z,57.65
2023-01-30T16:00:11.576Z,57.89
2023-01-30T16:02:39.344Z,57.75
2023-01-30T16:05:15.437Z,57.77
2023-01-30T16:07:44.181Z,57.76
2023-01-30T16:10:15.070Z,57.83
2023-01-30T16:12:44.824Z,57.44
2023-01-30T16:15:19.814Z,57.80
2023-01-30T16:17:58.075Z,57.83
2023-01-30T16:20:25.946Z,57.75
2023-01-30T16:22:53.739Z,57.84
2023-01-30T16:25:25.522Z,57.89
2023-01-30T16:27:54.623Z,57.46
2023-01-30T16:30:25.967Z,57.82
2023-01-30T16:32:55.985Z,58.03
2023-01-30T16:35:34.068Z,58.09
2023-01-30T16:38:05.004Z,57.85
2023-01-30T16:40:45.142Z,58.12
2023-01-30T16:43:23.664Z,57.69
2023-01-30T16:46:24.693Z,58.10
2023-01-30T16:48:52.429Z,57.98
2023-01-30T16:51:24.005Z,57.91
2023-01-30T16:53:56.703Z,57.92
2023-01-30T16:56:24.719Z,57.96
2023-01-30T16:58:56.980Z,58.07
2023-01-30T17:01:36.879Z,57.95
2023-01-30T17:04:07.131Z,57.98
2023-01-30T17:06:39.632Z,58.35
2023-01-30T17:09:29.133Z,57.96
2023-01-30T17:11:56.749Z,58.15
2023-01-30T17:14:27.097Z,58.00
2023-01-30T17:17:02.627Z,58.01
2023-01-30T17:19:30.743Z,58.03
2023-01-30T17:22:00.245Z,58.01
2023-01-30T17:24:28.928Z,57.80
2023-01-30T17:27:00.329Z,58.10
2023-01-30T17:29:42.568Z,58.07
2023-01-30T17:32:12.513Z,57.94
2023-01-30T17:34:41.289Z,58.09
2023-01-30T17:37:15.534Z,58.01
2023-01-30T17:39:43.278Z,58.06
2023-01-30T17:42:11.177Z,58.13
2023-01-30T17:44:40.590Z,58.17
2023-01-30T17:47:10.259Z,57.93
2023-01-30T17:49:37.904Z,58.26
2023-01-30T17:52:05.894Z,58.25
2023-01-30T17:54:33.650Z,58.24
2023-01-30T17:57:03.178Z,57.97
2023-01-30T17:59:31.237Z,58.23
2023-01-30T18:02:00.782Z,58.12
2023-01-30T18:04:28.551Z,58.23
2023-01-30T18:07:02.118Z,57.88
2023-01-30T18:09:29.981Z,58.09
2023-01-30T18:11:57.658Z,57.86
2023-01-30T18:14:25.424Z,58.08
2023-01-30T18:16:53.286Z,58.22
2023-01-30T18:19:23.982Z,58.03
2023-01-30T18:21:51.878Z,58.43
2023-01-30T18:24:20.347Z,58.33
2023-01-30T18:26:48.209Z,57.92
2023-01-30T18:29:16.432Z,57.92
2023-01-30T18:31:44.161Z,58.29
2023-01-30T18:34:12.461Z,58.08
2023-01-30T18:36:41.578Z,58.08
2023-01-30T18:39:09.306Z,58.52
2023-01-30T18:41:37.013Z,58.10
2023-01-30T18:44:08.330Z,57.93
2023-01-30T18:46:36.023Z,58.30
2023-01-30T18:49:03.794Z,58.11
2023-01-30T18:51:34.151Z,58.15
2023-01-30T18:54:03.397Z,58.21
2023-01-30T18:56:33.123Z,58.03
2023-01-30T18:59:04.109Z,58.12
2023-01-30T19:01:35.575Z,57.85
2023-01-30T19:04:05.915Z,58.12
2023-01-30T19:06:36.233Z,58.07
2023-01-30T19:09:06.149Z,58.14
2023-01-30T19:11:51.819Z,58.21
2023-01-30T19:14:19.807Z,58.19
2023-01-30T19:16:47.529Z,58.17
2023-01-30T19:19:15.163Z,58.18
2023-01-30T19:21:42.820Z,58.07
2023-01-30T19:24:15.278Z,57.97
2023-01-30T19:26:43.476Z,58.07
2023-01-30T19:29:11.643Z,57.96
2023-01-30T19:31:39.468Z,58.19
2023-01-30T19:34:07.498Z,57.88
2023-01-30T19:36:36.983Z,58.15
2023-01-30T19:39:06.129Z,58.00
2023-01-30T19:41:37.403Z,58.37
2023-01-30T19:44:06.797Z,58.21
2023-01-30T19:46:34.871Z,58.05
2023-01-30T19:49:03.400Z,58.43
2023-01-30T19:51:32.786Z,58.17
2023-01-30T19:54:02.229Z,58.34
2023-01-30T19:56:30.530Z,58.19
2023-01-30T19:59:01.132Z,58.48
2023-01-30T20:01:32.750Z,58.24
2023-01-30T20:04:02.375Z,58.25
2023-01-30T20:06:31.996Z,58.29
2023-01-30T20:09:01.298Z,58.23
2023-01-30T20:11:29.962Z,58.39
2023-01-30T20:14:01.263Z,58.20
2023-01-30T20:16:31.271Z,58.23
2023-01-30T20:19:00.434Z,58.37
2023-01-30T20:21:29.224Z,58.07
2023-01-30T20:23:57.503Z,58.33
2023-01-30T20:26:27.102Z,58.23
2023-01-30T20:28:55.520Z,58.19
2023-01-30T20:31:26.852Z,58.31
2023-01-30T20:33:57.407Z,58.09
2023-01-30T20:36:27.129Z,58.33
2023-01-30T20:38:56.521Z,58.43
2023-01-30T20:41:25.847Z,58.22
2023-01-30T20:43:57.512Z,58.49
2023-01-30T20:46:35.924Z,58.30
2023-01-30T20:49:04.371Z,58.25
2023-01-30T20:51:35.032Z,58.45
2023-01-30T20:54:05.978Z,58.35
2023-01-30T20:56:37.501Z,58.32
2023-01-30T20:59:07.638Z,58.23
2023-01-30T21:01:37.514Z,58.04
2023-01-30T21:04:07.614Z,58.28
2023-01-30T21:06:42.415Z,58.41
2023-01-30T21:09:14.937Z,58.29
2023-01-30T21:11:43.691Z,58.55
2023-01-30T21:14:12.129Z,58.43
2023-01-30T21:16:42.149Z,58.50
2023-01-30T21:19:14.426Z,58.53
2023-01-30T21:21:59.092Z,58.35
2023-01-30T21:24:48.592Z,57.87
2023-01-30T21:27:41.911Z,58.13
2023-01-30T21:30:29.259Z,58.33
2023-01-30T21:33:06.459Z,58.71
2023-01-30T21:35:42.049Z,58.37
2023-01-30T21:38:39.158Z,58.48
2023-01-30T21:41:37.840Z,58.35
2023-01-30T21:44:23.116Z,58.43
2023-01-30T21:47:20.003Z,58.17
2023-01-30T21:50:06.672Z,58.20
2023-01-30T21:52:46.587Z,58.34
2023-01-30T21:55:18.722Z,58.38
2023-01-30T21:57:50.920Z,58.40
2023-01-30T22:00:20.562Z,58.75
2023-01-30T22:02:53.218Z,58.59
2023-01-30T22:05:23.681Z,58.62
2023-01-30T22:07:52.975Z,58.16
2023-01-30T22:10:24.482Z,58.62
2023-01-30T22:12:55.813Z,58.51
2023-01-30T22:15:36.303Z,58.39
2023-01-30T22:18:14.205Z,58.51
2023-01-30T22:20:52.715Z,58.33
2023-01-30T22:23:38.881Z,58.67
2023-01-30T22:26:52.704Z,58.76
2023-01-30T22:30:04.516Z,58.54
2023-01-30T22:33:17.575Z,58.58
2023-01-30T22:36:48.227Z,58.57
2023-01-30T22:40:03.231Z,58.37
2023-01-30T22:46:57.803Z,58.55
2023-01-30T22:50:01.937Z,58.59
2023-01-30T22:53:23.887Z,58.79
2023-01-30T22:56:43.352Z,58.44
2023-01-30T23:00:00.992Z,58.74
2023-01-30T23:06:25.651Z,58.74
2023-01-30T23:09:15.870Z,58.78
2023-01-30T23:13:05.462Z,58.75
2023-01-30T23:16:06.985Z,58.69
2023-01-30T23:19:22.063Z,58.48
2023-01-30T23:22:19.338Z,58.67
2023-01-30T23:25:50.443Z,58.65
2023-01-30T23:29:01.588Z,58.91
2023-01-30T23:32:08.238Z,58.50
2023-01-30T23:35:50.350Z,58.61
2023-01-30T23:39:05.824Z,59.02
2023-01-30T23:42:29.150Z,58.98
2023-01-30T23:45:14.071Z,58.87
2023-01-30T23:47:41.736Z,58.94
2023-01-30T23:50:11.266Z,58.69
2023-01-30T23:52:39.850Z,58.80
2023-01-30T23:55:08.670Z,58.93
2023-01-30T23:57:37.801Z,58.59
